Time;durP1;ratioP1;P1;durP2;ratioP2;P2;SDS_P1;SDS_P2;PMS_P1;PMS_P2;Temp;Humidity;BMP_temperature;BMP_pressure;BME280_temperature;BME280_humidity;BME280_pressure;Samples;Min_cycle;Max_cycle;Signal;HPM_P1;HPM_P2
2022/09/16 00:01:14;;;;;;;1.90;1.20;;;;;;;14.47;nan;99974.34;4971041;28;20101;-68
2022/09/16 00:03:40;;;;;;;3.10;1.40;;;;;;;14.45;nan;99979.03;4967719;28;20271;-67
2022/09/16 00:06:05;;;;;;;2.10;1.30;;;;;;;14.44;nan;99980.00;4970001;28;20572;-68
2022/09/16 00:08:31;;;;;;;1.75;1.17;;;;;;;14.43;nan;99973.06;4972526;28;20037;-67
2022/09/16 00:11:01;;;;;;;1.90;1.23;;;;;;;14.42;nan;99964.25;4972296;28;20146;-66
2022/09/16 00:13:26;;;;;;;2.10;1.35;;;;;;;14.40;nan;99971.59;4969444;28;20061;-66
2022/09/16 00:15:52;;;;;;;2.20;1.40;;;;;;;14.38;nan;99967.50;4972212;28;20247;-68
2022/09/16 00:18:18;;;;;;;1.90;1.33;;;;;;;14.40;nan;99965.47;4971670;28;20039;-67
2022/09/16 00:20:51;;;;;;;2.22;1.60;;;;;;;14.38;nan;99967.50;4972616;28;20444;-67
2022/09/16 00:23:17;;;;;;;2.63;1.40;;;;;;;14.38;nan;99962.16;4974036;28;20031;-67
2022/09/16 00:25:42;;;;;;;2.45;1.38;;;;;;;14.36;nan;99965.00;4971848;28;20035;-67
2022/09/16 00:28:08;;;;;;;2.40;1.40;;;;;;;14.34;nan;99960.91;4971214;28;20058;-67
2022/09/16 00:30:33;;;;;;;2.38;1.23;;;;;;;14.34;nan;99966.22;4971060;28;20077;-68
2022/09/16 00:32:59;;;;;;;2.10;1.33;;;;;;;14.33;nan;99969.91;4965188;28;20441;-66
2022/09/16 00:35:24;;;;;;;2.22;1.30;;;;;;;14.31;nan;99967.44;4971810;28;20038;-66
2022/09/16 00:37:49;;;;;;;3.42;1.33;;;;;;;14.28;nan;99957.16;4964051;28;20036;-67
2022/09/16 00:40:15;;;;;;;2.05;1.15;;;;;;;14.24;nan;99955.91;4970960;28;20054;-67
2022/09/16 00:42:40;;;;;;;2.58;1.60;;;;;;;14.19;nan;99956.47;4969865;28;20488;-68
2022/09/16 00:45:18;;;;;;;1.63;1.15;;;;;;;14.15;nan;99960.50;4971392;28;20045;-67
2022/09/16 00:47:48;;;;;;;2.45;1.50;;;;;;;14.14;nan;99963.38;4966622;28;20122;-67
2022/09/16 00:50:22;;;;;;;2.10;1.45;;;;;;;14.10;nan;99962.09;4962827;28;20396;-67
2022/09/16 00:52:49;;;;;;;2.28;1.40;;;;;;;14.06;nan;99966.13;4968649;28;20066;-67
2022/09/16 00:55:20;;;;;;;1.92;1.30;;;;;;;14.01;nan;99959.56;4970424;28;20045;-67
2022/09/16 00:57:46;;;;;;;2.22;1.42;;;;;;;13.97;nan;99971.56;4968704;28;20275;-67
2022/09/16 01:00:12;;;;;;;2.63;1.50;;;;;;;13.95;nan;99975.44;4965291;28;20256;-67
2022/09/16 01:02:41;;;;;;;2.17;1.50;;;;;;;13.95;nan;99967.47;4970373;28;20033;-67
2022/09/16 01:05:13;;;;;;;2.00;1.48;;;;;;;13.98;nan;99965.22;4969224;28;20117;-66
2022/09/16 01:07:42;;;;;;;3.22;1.42;;;;;;;13.98;nan;99964.41;4971164;28;20035;-67
2022/09/16 01:10:08;;;;;;;2.83;1.50;;;;;;;13.97;nan;99966.25;4984581;28;20058;-67
2022/09/16 01:12:35;;;;;;;2.20;1.50;;;;;;;13.96;nan;99964.59;4970558;28;20039;-67
2022/09/16 01:15:02;;;;;;;2.22;1.20;;;;;;;13.96;nan;99958.47;4962653;28;20038;-67
2022/09/16 01:17:37;;;;;;;2.50;1.60;;;;;;;13.92;nan;99959.84;4970888;28;20033;-66
2022/09/16 01:20:30;;;;;;;3.13;1.40;;;;;;;13.92;nan;99957.19;4963718;28;20043;-66
2022/09/16 01:23:06;;;;;;;3.47;1.70;;;;;;;13.94;nan;99956.00;4970226;28;20496;-67
2022/09/16 01:25:53;;;;;;;2.92;1.75;;;;;;;13.99;nan;99958.06;4965447;28;20488;-67
2022/09/16 01:28:52;;;;;;;3.05;1.92;;;;;;;13.97;nan;99957.47;4969074;28;20062;-67
2022/09/16 01:31:23;;;;;;;1.98;1.42;;;;;;;13.97;nan;99958.28;4963163;28;20031;-67
2022/09/16 01:34:13;;;;;;;2.58;1.70;;;;;;;13.96;nan;99959.28;4969052;28;20497;-68
2022/09/16 01:36:57;;;;;;;2.17;1.50;;;;;;;13.95;nan;99955.00;4970633;28;20053;-67
2022/09/16 01:39:34;;;;;;;2.30;1.40;;;;;;;13.98;nan;99961.75;4967321;28;20102;-67
2022/09/16 01:42:14;;;;;;;3.60;1.50;;;;;;;13.99;nan;99966.06;4970072;28;20047;-66
2022/09/16 01:45:05;;;;;;;1.65;1.10;;;;;;;14.02;nan;99968.34;4969973;28;20045;-67
2022/09/16 01:47:47;;;;;;;2.28;1.40;;;;;;;14.06;nan;99972.25;4964975;28;20035;-67
2022/09/16 01:50:44;;;;;;;2.22;1.50;;;;;;;14.08;nan;99970.25;4969470;28;20126;-67
2022/09/16 01:53:35;;;;;;;2.22;1.25;;;;;;;14.13;nan;99975.00;4926465;28;20034;-67
2022/09/16 01:56:30;;;;;;;2.83;1.52;;;;;;;14.17;nan;99979.75;4969727;28;20424;-67
2022/09/16 01:59:02;;;;;;;2.17;1.30;;;;;;;14.22;nan;99979.19;4967063;28;20444;-67
2022/09/16 02:01:39;;;;;;;2.33;1.55;;;;;;;14.24;nan;99978.00;4966069;28;20617;-67
2022/09/16 02:04:10;;;;;;;2.60;1.42;;;;;;;14.27;nan;99968.81;4969347;28;20051;-67
2022/09/16 02:06:39;;;;;;;2.08;1.48;;;;;;;14.28;nan;99962.50;4968096;28;20023;-66
2022/09/16 02:09:11;;;;;;;4.65;2.00;;;;;;;14.28;nan;99948.34;4969650;28;20158;-67
2022/09/16 02:11:37;;;;;;;3.03;1.98;;;;;;;14.27;nan;99939.56;4969557;28;20042;-67
2022/09/16 02:14:08;;;;;;;3.58;1.90;;;;;;;14.26;nan;99915.81;4967039;28;20104;-67
2022/09/16 02:16:42;;;;;;;4.85;2.50;;;;;;;14.25;nan;99907.00;4968433;28;20066;-67
2022/09/16 02:19:18;;;;;;;4.03;2.20;;;;;;;14.23;nan;99915.19;4969827;28;20042;-67
2022/09/16 02:21:45;;;;;;;3.90;2.15;;;;;;;14.23;nan;99930.34;4969080;28;20042;-66
2022/09/16 02:24:15;;;;;;;4.18;1.90;;;;;;;14.22;nan;99942.78;4969435;28;20031;-67
2022/09/16 02:26:47;;;;;;;3.30;1.63;;;;;;;14.19;nan;99945.81;4969214;28;20407;-67
2022/09/16 02:29:19;;;;;;;1.92;1.52;;;;;;;14.16;nan;99948.06;4968004;28;20031;-67
2022/09/16 02:31:46;;;;;;;2.53;1.42;;;;;;;14.13;nan;99946.56;4968440;28;20190;-67
2022/09/16 02:34:18;;;;;;;1.90;1.35;;;;;;;14.16;nan;99953.38;4969169;28;20057;-67
2022/09/16 02:36:49;;;;;;;2.20;1.30;;;;;;;14.18;nan;99951.31;4968044;28;20043;-66
2022/09/16 02:39:23;;;;;;;3.10;1.67;;;;;;;14.19;nan;99953.00;4969768;28;20169;-66
2022/09/16 02:41:49;;;;;;;2.40;1.50;;;;;;;14.18;nan;99946.84;4968689;28;20093;-68
2022/09/16 02:44:14;;;;;;;2.65;1.52;;;;;;;14.19;nan;99953.00;4968884;28;20067;-67
2022/09/16 02:47:08;;;;;;;2.45;1.60;;;;;;;14.16;nan;99964.81;4969073;28;20511;-66
2022/09/16 02:49:51;;;;;;;2.13;1.33;;;;;;;14.17;nan;99963.81;4969106;28;20063;-67
2022/09/16 02:52:35;;;;;;;3.00;1.60;;;;;;;14.16;nan;99974.66;4960820;28;20035;-67
2022/09/16 02:55:51;;;;;;;2.55;1.70;;;;;;;14.16;nan;99977.31;4968466;28;20118;-67
2022/09/16 02:58:16;;;;;;;2.00;1.30;;;;;;;14.17;nan;99974.44;4901044;29;20402;-66
2022/09/16 03:00:45;;;;;;;2.33;1.40;;;;;;;14.17;nan;99976.28;4951526;28;20037;-66
2022/09/16 03:03:11;;;;;;;2.10;1.35;;;;;;;14.16;nan;99979.97;4968869;28;20038;-67
2022/09/16 03:05:59;;;;;;;2.25;1.30;;;;;;;14.17;nan;99982.41;4963753;28;20105;-67
2022/09/16 03:08:24;;;;;;;2.95;1.65;;;;;;;14.16;nan;99980.78;4961895;28;20042;-67
2022/09/16 03:10:51;;;;;;;2.80;1.52;;;;;;;14.16;nan;99983.44;4969283;28;20030;-66
2022/09/16 03:13:35;;;;;;;3.35;1.40;;;;;;;14.17;nan;99984.25;4966604;28;20023;-68
2022/09/16 03:16:21;;;;;;;2.65;1.58;;;;;;;14.16;nan;99978.13;4969947;28;20093;-67
2022/09/16 03:19:08;;;;;;;2.80;1.58;;;;;;;14.17;nan;99976.28;4967436;28;20041;-67
2022/09/16 03:21:47;;;;;;;3.83;1.70;;;;;;;14.16;nan;99979.97;4971481;28;20092;-66
2022/09/16 03:24:37;;;;;;;2.55;1.45;;;;;;;14.17;nan;99976.28;4972747;28;20081;-67
2022/09/16 03:27:21;;;;;;;2.00;1.30;;;;;;;14.15;nan;99965.00;4978369;28;20409;-67
2022/09/16 03:30:04;;;;;;;2.47;1.67;;;;;;;14.16;nan;99964.00;4972754;28;20041;-66
2022/09/16 03:32:34;;;;;;;4.10;1.83;;;;;;;14.12;nan;99960.88;4975255;28;20404;-66
2022/09/16 03:35:03;;;;;;;2.00;1.37;;;;;;;14.12;nan;99944.94;4972899;28;20031;-66
2022/09/16 03:37:33;;;;;;;2.47;1.40;;;;;;;14.12;nan;99950.25;4974085;28;20035;-67
2022/09/16 03:40:04;;;;;;;1.88;1.23;;;;;;;14.11;nan;99950.44;4971199;28;20322;-66
2022/09/16 03:42:30;;;;;;;2.35;1.30;;;;;;;14.10;nan;99949.63;4972195;28;20038;-67
2022/09/16 03:44:56;;;;;;;2.55;1.23;;;;;;;14.09;nan;99939.19;4972853;28;20053;-67
2022/09/16 03:47:21;;;;;;;1.90;1.17;;;;;;;14.10;nan;99938.97;4974228;28;20039;-67
2022/09/16 03:49:46;;;;;;;1.67;1.02;;;;;;;14.07;nan;99936.72;4970912;28;20042;-67
2022/09/16 03:52:12;;;;;;;1.80;1.30;;;;;;;14.04;nan;99947.72;4969560;28;20031;-67
2022/09/16 03:54:37;;;;;;;2.15;1.20;;;;;;;14.04;nan;99942.41;4972493;28;20023;-67
2022/09/16 03:57:03;;;;;;;1.98;1.30;;;;;;;14.02;nan;99933.81;4972796;28;20121;-67
2022/09/16 03:59:29;;;;;;;2.20;1.30;;;;;;;14.03;nan;99935.44;4967937;28;20101;-67
2022/09/16 04:01:55;;;;;;;1.90;1.20;;;;;;;14.05;nan;99930.75;4969007;28;20034;-68
2022/09/16 04:04:20;;;;;;;1.73;1.25;;;;;;;14.04;nan;99929.13;4969970;28;20126;-67
2022/09/16 04:06:45;;;;;;;2.13;1.23;;;;;;;14.01;nan;99934.78;4972332;28;20122;-67
2022/09/16 04:09:11;;;;;;;3.25;1.58;;;;;;;13.98;nan;99933.34;4971636;28;20045;-68
2022/09/16 04:11:37;;;;;;;1.95;1.40;;;;;;;13.98;nan;99932.53;4972009;28;20126;-66
2022/09/16 04:14:03;;;;;;;1.77;1.15;;;;;;;13.97;nan;99920.25;4968747;28;20039;-66
2022/09/16 04:16:29;;;;;;;2.25;1.30;;;;;;;13.96;nan;99926.56;4972205;28;20484;-67
2022/09/16 04:18:55;;;;;;;2.25;1.30;;;;;;;13.95;nan;99928.41;4969040;28;20408;-68
2022/09/16 04:21:20;;;;;;;3.05;1.08;;;;;;;13.97;nan;99933.53;4972030;28;20030;-66
2022/09/16 04:23:47;;;;;;;1.63;1.10;;;;;;;13.99;nan;99937.66;4969176;28;20034;-67
2022/09/16 04:26:12;;;;;;;3.17;1.10;;;;;;;14.00;nan;99930.50;4971548;28;20282;-67
2022/09/16 04:28:38;;;;;;;2.78;1.30;;;;;;;14.03;nan;99935.44;4971200;28;20269;-67
2022/09/16 04:31:06;;;;;;;2.28;1.38;;;;;;;14.03;nan;99935.44;4970821;28;20189;-67
2022/09/16 04:33:34;;;;;;;3.67;1.40;;;;;;;14.05;nan;99929.94;4971146;28;20033;-66
2022/09/16 04:36:14;;;;;;;2.45;1.40;;;;;;;14.02;nan;99923.97;4972015;28;20035;-68
2022/09/16 04:38:41;;;;;;;3.00;1.30;;;;;;;14.02;nan;99921.31;4969499;28;20135;-67
2022/09/16 04:41:10;;;;;;;3.15;1.60;;;;;;;14.02;nan;99923.16;4971464;28;20126;-67
2022/09/16 04:43:35;;;;;;;2.92;1.33;;;;;;;14.01;nan;99932.13;4966493;28;20043;-67
2022/09/16 04:46:01;;;;;;;2.28;1.35;;;;;;;14.02;nan;99925.81;4969875;28;20034;-67
2022/09/16 04:48:27;;;;;;;2.10;1.20;;;;;;;14.01;nan;99934.78;4970551;28;20035;-67
2022/09/16 04:50:53;;;;;;;2.35;1.17;;;;;;;14.01;nan;99927.66;4970795;28;20043;-66
2022/09/16 04:53:20;;;;;;;1.60;1.20;;;;;;;14.02;nan;99931.13;4970184;28;20114;-67
2022/09/16 04:55:46;;;;;;;4.43;1.40;;;;;;;14.02;nan;99921.31;4968174;28;20089;-66
2022/09/16 04:58:12;;;;;;;2.25;1.25;;;;;;;14.02;nan;99920.50;4970702;28;20484;-67
2022/09/16 05:00:37;;;;;;;2.28;1.20;;;;;;;14.01;nan;99927.66;4969045;28;20035;-66
2022/09/16 05:03:03;;;;;;;1.73;1.20;;;;;;;14.02;nan;99936.47;4969912;28;20523;-66
2022/09/16 05:05:28;;;;;;;2.20;1.00;;;;;;;14.01;nan;99922.34;4968237;28;20108;-67
2022/09/16 05:07:53;;;;;;;1.70;1.08;;;;;;;14.01;nan;99926.81;4971139;28;20069;-66
2022/09/16 05:10:18;;;;;;;1.80;0.95;;;;;;;14.01;nan;99924.16;4969244;28;20039;-67
2022/09/16 05:12:44;;;;;;;2.05;1.50;;;;;;;13.99;nan;99931.50;4969544;28;20042;-67
2022/09/16 05:15:09;;;;;;;2.15;1.10;;;;;;;13.97;nan;99933.53;4970715;28;20078;-67
2022/09/16 05:17:34;;;;;;;1.98;1.00;;;;;;;13.96;nan;99929.22;4969875;28;20031;-66
2022/09/16 05:20:00;;;;;;;1.88;1.15;;;;;;;13.95;nan;99930.25;4970755;28;20500;-66
2022/09/16 05:22:25;;;;;;;1.88;1.10;;;;;;;13.95;nan;99931.06;4976877;28;20026;-67
2022/09/16 05:24:50;;;;;;;2.42;1.02;;;;;;;13.97;nan;99930.88;4969605;28;20117;-67
2022/09/16 05:27:16;;;;;;;2.83;1.50;;;;;;;13.96;nan;99931.88;4970803;28;20218;-67
2022/09/16 05:29:41;;;;;;;3.50;1.30;;;;;;;13.95;nan;99936.38;4974236;28;20526;-68
2022/09/16 05:32:06;;;;;;;1.63;1.20;;;;;;;13.94;nan;99933.91;4971160;28;20073;-66
2022/09/16 05:34:34;;;;;;;2.75;1.27;;;;;;;13.96;nan;99932.69;4973026;28;20034;-66
2022/09/16 05:37:00;;;;;;;2.15;1.25;;;;;;;13.99;nan;99942.13;4972458;28;20136;-66
2022/09/16 05:39:25;;;;;;;2.70;1.40;;;;;;;14.00;nan;99941.13;4970821;28;20084;-67
2022/09/16 05:41:58;;;;;;;1.73;1.00;;;;;;;14.04;nan;99934.44;4972430;28;20097;-67
2022/09/16 05:44:25;;;;;;;2.53;1.13;;;;;;;14.06;nan;99944.88;4970571;28;20038;-67
2022/09/16 05:46:50;;;;;;;1.85;1.13;;;;;;;14.07;nan;99944.69;4972684;28;20404;-67
2022/09/16 05:49:19;;;;;;;4.00;1.30;;;;;;;14.10;nan;99935.50;4970297;28;20045;-67
2022/09/16 05:51:45;;;;;;;2.95;1.38;;;;;;;14.14;nan;99934.13;4971013;28;20129;-67
2022/09/16 05:54:11;;;;;;;2.65;1.40;;;;;;;14.16;nan;99926.78;4969991;28;20082;-67
2022/09/16 05:56:37;;;;;;;2.10;1.30;;;;;;;14.21;nan;99940.34;4970456;28;20066;-67
2022/09/16 05:59:02;;;;;;;1.77;1.00;;;;;;;14.28;nan;99943.88;4965059;28;20109;-67
2022/09/16 06:01:31;;;;;;;1.85;1.20;;;;;;;14.36;nan;99937.59;4969374;28;20038;-66
2022/09/16 06:03:57;;;;;;;3.20;1.05;;;;;;;14.40;nan;99938.88;4970093;28;20035;-67
2022/09/16 06:06:27;;;;;;;5.45;1.40;;;;;;;14.48;nan;99938.72;4968388;28;20043;-67
2022/09/16 06:08:54;;;;;;;2.70;1.20;;;;;;;14.58;nan;99946.41;4969814;28;20122;-67
2022/09/16 06:11:20;;;;;;;1.55;1.13;;;;;;;14.64;nan;99949.13;4974392;28;20049;-66
2022/09/16 06:13:45;;;;;;;2.15;1.40;;;;;;;14.70;nan;99947.53;4967688;28;20031;-68
2022/09/16 06:16:12;;;;;;;2.65;1.30;;;;;;;14.83;nan;99955.63;4969261;28;20031;-67
2022/09/16 06:18:37;;;;;;;2.75;1.20;;;;;;;14.92;nan;99947.47;4969914;28;20034;-67
2022/09/16 06:21:06;;;;;;;4.32;1.63;;;;;;;14.99;nan;99937.69;4968182;28;20054;-66
2022/09/16 06:23:32;;;;;;;7.45;2.05;;;;;;;15.08;nan;99944.50;4969736;28;20062;-69
2022/09/16 06:26:03;;;;;;;2.72;1.50;;;;;;;15.15;nan;99953.38;4969295;28;20161;-68
2022/09/16 06:28:29;;;;;;;2.05;1.10;;;;;;;15.27;nan;99949.13;4969237;28;20531;-69
2022/09/16 06:31:22;;;;;;;3.05;1.40;;;;;;;15.38;nan;99953.09;4967985;28;20035;-68
2022/09/16 06:33:49;;;;;;;2.50;1.50;;;;;;;15.51;nan;99958.47;4967120;28;20174;-68
2022/09/16 06:36:20;;;;;;;2.08;1.42;;;;;;;15.54;nan;99956.44;4961924;28;20035;-67
2022/09/16 06:38:46;;;;;;;3.25;1.38;;;;;;;15.60;nan;99945.81;4969620;28;20031;-67
2022/09/16 06:41:13;;;;;;;2.17;1.15;;;;;;;15.78;nan;99937.31;4967881;28;20038;-68
2022/09/16 06:43:39;;;;;;;2.50;1.20;;;;;;;16.00;nan;99940.66;4965844;28;20034;-68
2022/09/16 06:46:09;;;;;;;2.15;1.30;;;;;;;16.20;nan;99946.00;4969209;28;20058;-69
2022/09/16 06:48:35;;;;;;;3.25;1.30;;;;;;;16.45;nan;99937.44;4969446;28;20300;-68
2022/09/16 06:51:03;;;;;;;2.50;1.30;;;;;;;16.63;nan;99939.47;4967324;28;20038;-68
2022/09/16 06:53:29;;;;;;;3.50;1.45;;;;;;;16.73;nan;99939.88;4967493;28;20042;-68
2022/09/16 06:55:58;;;;;;;4.38;1.60;;;;;;;16.73;nan;99935.38;4969382;28;20105;-68
2022/09/16 06:58:23;;;;;;;3.88;1.50;;;;;;;16.72;nan;99925.72;4964267;28;20045;-68
2022/09/16 07:00:49;;;;;;;3.47;1.52;;;;;;;16.71;nan;99925.94;4966262;28;20035;-69
2022/09/16 07:03:15;;;;;;;2.97;1.50;;;;;;;16.68;nan;99931.66;4966521;28;20415;-68
2022/09/16 07:05:40;;;;;;;3.25;1.55;;;;;;;16.72;nan;99935.56;4968177;28;20027;-68
2022/09/16 07:08:06;;;;;;;3.72;1.80;;;;;;;16.86;nan;99939.91;4965743;28;20543;-69
2022/09/16 07:10:31;;;;;;;3.30;1.38;;;;;;;17.01;nan;99944.19;4969265;28;20041;-68
2022/09/16 07:12:57;;;;;;;3.03;1.52;;;;;;;17.02;nan;99944.00;4965200;28;20180;-68
2022/09/16 07:15:22;;;;;;;2.42;1.30;;;;;;;17.11;nan;99949.94;4969376;28;20043;-68
2022/09/16 07:17:52;;;;;;;2.72;1.48;;;;;;;17.11;nan;99942.75;4968434;28;20391;-68
2022/09/16 07:20:18;;;;;;;3.35;1.52;;;;;;;17.15;nan;99941.28;4968797;28;20542;-68
2022/09/16 07:22:43;;;;;;;3.45;1.50;;;;;;;17.37;nan;99947.19;4964218;28;20040;-68
2022/09/16 07:25:09;;;;;;;3.42;1.48;;;;;;;17.45;nan;99946.16;4968422;28;20407;-69
2022/09/16 07:27:34;;;;;;;3.40;1.73;;;;;;;17.57;nan;99957.81;4968512;28;20038;-68
2022/09/16 07:29:59;;;;;;;2.73;1.20;;;;;;;18.02;nan;99951.69;4968793;28;20337;-68
2022/09/16 07:32:24;;;;;;;3.73;1.40;;;;;;;17.96;nan;99956.03;4966960;28;20297;-69
2022/09/16 07:34:50;;;;;;;4.13;1.70;;;;;;;17.91;nan;99969.22;4967202;28;20284;-68
2022/09/16 07:37:16;;;;;;;2.25;1.25;;;;;;;17.89;nan;99967.81;4969237;28;20349;-68
2022/09/16 07:39:42;;;;;;;3.83;1.30;;;;;;;17.90;nan;99964.91;4965572;28;20039;-68
2022/09/16 07:42:07;;;;;;;3.88;1.45;;;;;;;17.91;nan;99973.75;4968314;28;20389;-68
2022/09/16 07:44:32;;;;;;;2.77;1.30;;;;;;;17.84;nan;99965.75;4969144;28;20037;-68
2022/09/16 07:46:57;;;;;;;2.80;1.08;;;;;;;17.76;nan;99969.47;4969031;28;20282;-68
2022/09/16 07:49:23;;;;;;;2.17;1.20;;;;;;;17.70;nan;99969.50;4970572;28;20063;-69
2022/09/16 07:51:48;;;;;;;4.63;1.50;;;;;;;17.55;nan;99969.75;4968169;28;20046;-68
2022/09/16 07:54:15;;;;;;;5.82;1.70;;;;;;;17.45;nan;99967.53;4961789;28;20348;-68
2022/09/16 07:56:42;;;;;;;4.05;1.33;;;;;;;17.28;nan;99966.34;4969232;28;20314;-68
2022/09/16 07:59:12;;;;;;;3.63;1.60;;;;;;;17.07;nan;99962.91;4967458;28;20039;-67
2022/09/16 08:01:38;;;;;;;3.00;1.38;;;;;;;16.98;nan;99964.94;4968899;28;20460;-67
2022/09/16 08:04:03;;;;;;;5.53;1.60;;;;;;;16.84;nan;99971.34;4974955;28;20117;-68
2022/09/16 08:06:30;;;;;;;4.60;1.80;;;;;;;16.89;nan;99968.84;4970596;28;20062;-68
2022/09/16 08:08:58;;;;;;;3.92;1.50;;;;;;;16.99;nan;99968.44;4977748;28;20042;-68
2022/09/16 08:11:25;;;;;;;3.13;1.50;;;;;;;17.07;nan;99978.09;4972294;28;20035;-68
2022/09/16 08:13:50;;;;;;;3.00;1.48;;;;;;;16.99;nan;99976.44;4973334;28;20509;-67
2022/09/16 08:16:20;;;;;;;5.07;1.83;;;;;;;16.88;nan;99979.78;4971840;28;20114;-68
2022/09/16 08:18:47;;;;;;;6.05;1.60;;;;;;;16.73;nan;99971.91;4972313;28;20511;-67
2022/09/16 08:21:15;;;;;;;3.70;1.17;;;;;;;16.75;nan;99967.19;4972208;28;20034;-68
2022/09/16 08:23:41;;;;;;;3.13;1.08;;;;;;;16.78;nan;99961.47;4972131;28;20023;-68
2022/09/16 08:26:09;;;;;;;2.92;1.10;;;;;;;16.79;nan;99964.97;4971330;28;20030;-68
2022/09/16 08:28:36;;;;;;;4.13;1.10;;;;;;;16.76;nan;99972.34;4971887;28;20061;-68
2022/09/16 08:31:01;;;;;;;2.53;1.02;;;;;;;16.67;nan;99973.56;4973422;28;20042;-69
2022/09/16 08:33:27;;;;;;;4.13;1.40;;;;;;;16.70;nan;99973.16;4972197;28;20109;-68
2022/09/16 08:36:04;;;;;;;2.53;1.10;;;;;;;16.59;nan;99976.47;4973466;28;20563;-69
2022/09/16 08:38:30;;;;;;;3.75;1.30;;;;;;;16.50;nan;99973.16;4971430;28;20034;-68
2022/09/16 08:41:14;;;;;;;3.45;1.38;;;;;;;16.49;nan;99979.53;4970623;28;20031;-68
2022/09/16 08:43:46;;;;;;;2.53;1.15;;;;;;;16.66;nan;99984.44;4971744;28;20522;-67
2022/09/16 08:46:40;;;;;;;3.03;1.05;;;;;;;16.74;nan;99981.59;4970432;28;20043;-68
2022/09/16 08:49:33;;;;;;;3.90;1.27;;;;;;;17.08;nan;99980.56;4969319;28;20039;-68
2022/09/16 08:52:04;;;;;;;3.13;1.30;;;;;;;17.59;nan;99984.31;4967184;28;20550;-68
2022/09/16 08:54:43;;;;;;;2.90;1.10;;;;;;;17.80;nan;99988.56;4969836;28;20133;-69
2022/09/16 08:57:14;;;;;;;4.22;1.40;;;;;;;17.90;nan;99985.47;4972151;28;20039;-67
2022/09/16 08:59:48;;;;;;;4.97;1.20;;;;;;;18.27;nan;99989.19;4966749;28;20058;-68
2022/09/16 09:02:38;;;;;;;3.13;1.27;;;;;;;19.33;nan;99975.97;4970755;28;20041;-68
2022/09/16 09:05:23;;;;;;;2.33;1.27;;;;;;;20.70;nan;99975.44;4967197;28;20043;-68
2022/09/16 09:08:03;;;;;;;2.78;1.13;;;;;;;20.76;nan;99975.31;4971234;28;20406;-69
2022/09/16 09:10:41;;;;;;;2.42;1.00;;;;;;;20.36;nan;99980.47;4968905;28;20069;-68
2022/09/16 09:13:51;;;;;;;3.25;0.90;;;;;;;20.20;nan;99984.63;4968715;28;20024;-69
2022/09/16 09:16:59;;;;;;;3.75;1.20;;;;;;;19.89;nan;99983.78;4926906;28;20071;-68
2022/09/16 09:19:51;;;;;;;5.78;1.42;;;;;;;19.68;nan;99987.75;4932477;29;20050;-68
2022/09/16 09:22:28;;;;;;;4.40;1.30;;;;;;;20.33;nan;99984.44;4968130;28;20420;-68
2022/09/16 09:24:57;;;;;;;4.07;1.02;;;;;;;20.19;nan;99991.06;4963836;28;20377;-69
2022/09/16 09:27:30;;;;;;;3.10;0.93;;;;;;;19.90;nan;99996.19;4965391;28;20035;-69
2022/09/16 09:30:04;;;;;;;3.15;0.90;;;;;;;19.89;nan;99986.47;4970736;28;20031;-68
2022/09/16 09:32:56;;;;;;;3.60;1.05;;;;;;;19.78;nan;99989.09;4970032;28;20089;-69
2022/09/16 09:35:46;;;;;;;2.28;1.00;;;;;;;19.89;nan;99982.97;4969463;28;20026;-68
2022/09/16 09:38:17;;;;;;;3.05;1.00;;;;;;;19.66;nan;99978.28;4969756;28;20034;-68
2022/09/16 09:40:58;;;;;;;;;;;;;;;19.49;nan;99978.06;4967978;28;20035;-68
2022/09/16 09:43:27;;;;;;;2.50;0.95;;;;;;;19.04;nan;99967.59;4964241;28;20178;-68
2022/09/16 09:45:57;;;;;;;3.30;0.90;;;;;;;18.76;nan;99976.94;4970189;28;20037;-68
2022/09/16 09:48:45;;;;;;;2.97;0.80;;;;;;;18.83;nan;99968.81;4969709;28;20035;-68
2022/09/16 09:51:27;;;;;;;3.08;1.05;;;;;;;19.01;nan;99963.50;4967708;28;20050;-68
2022/09/16 09:54:00;;;;;;;3.15;0.98;;;;;;;20.11;nan;99961.81;4970610;28;20561;-68
2022/09/16 09:56:40;;;;;;;1.80;0.80;;;;;;;21.25;nan;99971.56;4969039;28;20994;-68
2022/09/16 09:59:35;;;;;;;3.25;1.27;;;;;;;22.94;nan;99972.84;4970001;28;20638;-68
2022/09/16 10:02:01;;;;;;;3.28;0.70;;;;;;;24.87;nan;99988.03;4968155;28;20035;-69
2022/09/16 10:04:35;;;;;;;3.08;1.00;;;;;;;25.49;nan;99976.50;4968978;28;20038;-69
2022/09/16 10:07:01;;;;;;;1.73;0.60;;;;;;;25.53;nan;99982.19;4967091;28;20055;-70
2022/09/16 10:09:27;;;;;;;1.83;0.80;;;;;;;26.13;nan;99977.28;4969976;28;20038;-69
2022/09/16 10:11:54;;;;;;;1.85;0.68;;;;;;;26.78;nan;99970.28;4963999;28;20254;-69
2022/09/16 10:14:25;;;;;;;1.70;0.68;;;;;;;25.75;nan;99977.41;4967117;28;20038;-70
2022/09/16 10:16:52;;;;;;;1.73;0.77;;;;;;;24.80;nan;99972.00;4969834;28;20048;-69
2022/09/16 10:19:23;;;;;;;1.80;0.77;;;;;;;23.76;nan;99968.56;4969951;28;20057;-68
2022/09/16 10:21:52;;;;;;;2.72;0.73;;;;;;;23.04;nan;99977.59;4958011;28;20046;-68
2022/09/16 10:24:27;;;;;;;2.88;0.98;;;;;;;22.37;nan;99976.50;4969519;28;20639;-68
2022/09/16 10:26:52;;;;;;;1.48;0.70;;;;;;;22.16;nan;99966.41;4968201;28;20489;-68
2022/09/16 10:29:20;;;;;;;2.95;0.75;;;;;;;22.65;nan;99969.44;4967091;28;20041;-68
2022/09/16 10:31:47;;;;;;;2.60;0.95;;;;;;;22.84;nan;99962.72;4968041;28;20057;-72
2022/09/16 10:34:21;;;;;;;3.28;0.80;;;;;;;23.01;nan;99964.63;4969416;28;20043;-69
2022/09/16 10:37:01;;;;;;;2.83;1.00;;;;;;;23.40;nan;99962.72;4969441;28;20404;-68
2022/09/16 10:39:29;;;;;;;2.42;0.73;;;;;;;23.86;nan;99963.31;4969547;28;20384;-69
2022/09/16 10:41:54;;;;;;;1.77;0.80;;;;;;;24.95;nan;99964.00;4969552;28;20042;-69
2022/09/16 10:44:29;;;;;;;1.65;0.60;;;;;;;27.54;nan;99963.03;4967311;28;20053;-69
2022/09/16 10:47:08;;;;;;;2.10;0.60;;;;;;;28.85;nan;99953.47;4969211;28;20078;-70
2022/09/16 10:49:46;;;;;;;2.45;0.80;;;;;;;28.70;nan;99962.59;4964800;28;20065;-67
2022/09/16 10:52:26;;;;;;;1.48;0.57;;;;;;;26.92;nan;99956.97;4968848;28;20045;-68
2022/09/16 10:54:53;;;;;;;2.97;0.77;;;;;;;25.98;nan;99962.63;4964089;28;20053;-69
2022/09/16 10:57:28;;;;;;;1.52;0.60;;;;;;;24.75;nan;99959.28;4968086;28;20039;-68
2022/09/16 11:00:12;;;;;;;1.77;0.70;;;;;;;23.81;nan;99954.31;4964708;28;20300;-68
2022/09/16 11:02:53;;;;;;;1.48;0.57;;;;;;;23.43;nan;99958.69;4968504;28;20573;-70
2022/09/16 11:05:34;;;;;;;7.77;1.37;;;;;;;24.35;nan;99955.13;4962230;28;20043;-68
2022/09/16 11:08:09;;;;;;;1.13;0.70;;;;;;;24.26;nan;99948.56;4969588;28;20274;-68
2022/09/16 11:11:12;;;;;;;1.92;0.80;;;;;;;25.75;nan;99944.91;4969083;28;20447;-68
2022/09/16 11:13:54;;;;;;;3.33;1.00;;;;;;;25.41;nan;99933.72;4966504;28;20039;-69
2022/09/16 11:16:44;;;;;;;2.83;0.77;;;;;;;24.68;nan;99942.47;4959324;28;20049;-69
2022/09/16 11:19:45;;;;;;;1.98;0.60;;;;;;;23.89;nan;99946.59;4968228;28;20117;-69
2022/09/16 11:22:19;;;;;;;1.23;0.50;;;;;;;23.70;nan;99940.69;4925237;28;20052;-68
2022/09/16 11:25:10;;;;;;;1.52;0.68;;;;;;;23.83;nan;99944.91;4963866;28;20050;-68
2022/09/16 11:27:36;;;;;;;2.25;0.90;;;;;;;26.39;nan;99946.41;4964304;28;20058;-69
2022/09/16 11:30:11;;;;;;;1.90;0.68;;;;;;;26.79;nan;99946.66;4965366;28;20456;-70
2022/09/16 11:32:50;;;;;;;2.08;0.80;;;;;;;25.53;nan;99931.59;4969149;28;20476;-69
2022/09/16 11:35:24;;;;;;;1.42;0.52;;;;;;;27.14;nan;99940.34;4965324;28;20416;-69
2022/09/16 11:38:08;;;;;;;2.17;0.70;;;;;;;29.52;nan;99930.97;4967719;28;20404;-69
2022/09/16 11:40:49;;;;;;;;;;;;;;;30.36;nan;99942.03;4972065;28;20045;-67
2022/09/16 11:43:39;;;;;;;1.98;0.80;;;;;;;30.28;nan;99929.06;4964658;28;19925;-67
2022/09/16 11:46:04;;;;;;;;;;;;;;;29.89;nan;99934.81;4971679;28;20212;-68
2022/09/16 11:48:33;;;;;;;1.50;0.60;;;;;;;28.57;nan;99930.59;4971376;28;20158;-67
2022/09/16 11:51:06;;;;;;;2.00;0.73;;;;;;;27.98;nan;99935.13;4969408;28;20046;-67
2022/09/16 11:53:51;;;;;;;2.08;0.60;;;;;;;28.19;nan;99929.53;4968792;28;20458;-67
2022/09/16 11:56:46;;;;;;;1.52;0.40;;;;;;;27.92;nan;99928.09;4966572;28;20396;-69
2022/09/16 11:59:28;;;;;;;1.42;0.55;;;;;;;26.51;nan;99929.88;4982658;28;20031;-69
2022/09/16 12:02:08;;;;;;;1.75;0.60;;;;;;;25.30;nan;99916.59;4968807;28;20034;-69
2022/09/16 12:04:41;;;;;;;1.27;0.60;;;;;;;24.02;nan;99923.75;4969514;28;20090;-69
2022/09/16 12:07:37;;;;;;;2.10;0.70;;;;;;;22.42;nan;99938.06;4963316;28;20068;-68
2022/09/16 12:10:35;;;;;;;3.15;0.90;;;;;;;20.67;nan;99946.34;4960597;28;20522;-69
2022/09/16 12:13:07;;;;;;;3.95;0.90;;;;;;;18.67;nan;99930.00;4935533;28;20035;-69
2022/09/16 12:16:11;;;;;;;2.65;0.90;;;;;;;17.66;nan;99933.50;4971080;28;20101;-69